Time;durP1;ratioP1;P1;durP2;ratioP2;P2;SDS_P1;SDS_P2;PMS_P1;PMS_P2;Temp;Humidity;BMP_temperature;BMP_pressure;BME280_temperature;BME280_humidity;BME280_pressure;Samples;Min_cycle;Max_cycle;Signal;HPM_P1;HPM_P2
2022/12/01 00:01:14;;;;;;;64.90;27.03;;;;;;;12.92;47.57;102882.13;5049567;28;20075;-68
2022/12/01 00:03:40;;;;;;;58.07;25.53;;;;;;;12.56;47.81;102877.25;5049454;28;20048;-68
2022/12/01 00:06:09;;;;;;;56.87;25.30;;;;;;;12.70;47.24;102877.44;5048435;28;20028;-69
2022/12/01 00:08:35;;;;;;;62.93;26.17;;;;;;;12.45;48.20;102876.22;5043975;28;20017;-68
2022/12/01 00:11:05;;;;;;;58.70;26.70;;;;;;;12.09;48.35;102873.91;5047062;28;20029;-68
2022/12/01 00:13:31;;;;;;;58.20;26.43;;;;;;;12.89;47.11;102869.84;5050340;28;20021;-68
2022/12/01 00:15:56;;;;;;;55.27;23.93;;;;;;;12.54;47.34;102872.84;5047777;28;20104;-68
2022/12/01 00:18:21;;;;;;;52.87;24.47;;;;;;;12.52;47.37;102869.34;5047520;28;20112;-69
2022/12/01 00:20:54;;;;;;;58.93;24.80;;;;;;;12.68;47.54;102875.66;5050169;28;20025;-68
2022/12/01 00:23:20;;;;;;;58.50;24.67;;;;;;;12.90;46.65;102879.47;5048232;28;20032;-68
2022/12/01 00:25:45;;;;;;;59.27;26.37;;;;;;;12.68;47.31;102881.81;5050141;28;20371;-68
2022/12/01 00:28:10;;;;;;;58.53;25.80;;;;;;;12.62;47.12;102881.72;5048312;28;20025;-68
2022/12/01 00:30:36;;;;;;;62.03;27.40;;;;;;;12.82;47.89;102889.00;5049309;28;20083;-68
2022/12/01 00:33:01;;;;;;;56.80;26.13;;;;;;;12.89;47.24;102880.34;5046173;28;20021;-68
2022/12/01 00:35:26;;;;;;;65.13;25.83;;;;;;;12.60;47.07;102883.44;5051176;28;20039;-68
2022/12/01 00:37:53;;;;;;;62.07;25.40;;;;;;;12.32;47.94;102885.66;5047744;28;20017;-69
2022/12/01 00:40:18;;;;;;;55.43;25.03;;;;;;;12.58;47.32;102874.66;5047993;28;20063;-68
2022/12/01 00:42:43;;;;;;;57.40;24.77;;;;;;;12.75;47.08;102881.88;5050211;28;20048;-68
2022/12/01 00:45:09;;;;;;;55.00;24.53;;;;;;;12.38;47.25;102885.75;5045164;28;20056;-68
2022/12/01 00:47:35;;;;;;;57.67;24.07;;;;;;;12.65;47.55;102881.78;5051048;28;20029;-68
2022/12/01 00:50:01;;;;;;;57.97;24.70;;;;;;;12.54;47.45;102883.34;5047840;28;20029;-68
2022/12/01 00:52:26;;;;;;;65.93;24.73;;;;;;;12.68;47.53;102886.16;5044503;28;20028;-69
2022/12/01 00:54:51;;;;;;;61.57;24.87;;;;;;;12.35;48.19;102890.94;5048835;28;20474;-69
2022/12/01 00:57:17;;;;;;;91.13;25.73;;;;;;;12.60;48.05;102883.44;5051149;28;20032;-68
2022/12/01 00:59:42;;;;;;;75.90;24.60;;;;;;;12.81;47.88;102887.22;5045794;28;20028;-68
2022/12/01 01:02:07;;;;;;;76.13;24.27;;;;;;;12.61;48.25;102890.47;5045816;28;20090;-70
2022/12/01 01:04:34;;;;;;;82.57;22.57;;;;;;;12.57;48.53;102891.28;5049417;28;20025;-69
2022/12/01 01:07:00;;;;;;;58.33;23.77;;;;;;;12.61;49.14;102885.22;5052386;28;20040;-69
2022/12/01 01:09:26;;;;;;;55.63;22.60;;;;;;;13.05;47.98;102887.53;5047410;28;20033;-68
2022/12/01 01:11:52;;;;;;;47.10;20.23;;;;;;;12.49;49.13;102895.53;5046029;28;20025;-68
2022/12/01 01:14:18;;;;;;;47.80;20.83;;;;;;;13.14;48.15;102891.13;5048793;28;20052;-68
2022/12/01 01:16:43;;;;;;;48.53;20.53;;;;;;;12.94;48.54;102888.25;5048153;28;20106;-68
2022/12/01 01:19:09;;;;;;;45.03;21.40;;;;;;;13.22;47.58;102889.50;5057741;28;20026;-68
2022/12/01 01:21:34;;;;;;;43.13;19.63;;;;;;;13.46;47.04;102885.41;5049117;28;20035;-68
2022/12/01 01:24:00;;;;;;;43.67;20.17;;;;;;;12.94;47.99;102898.75;5050916;28;20039;-68
2022/12/01 01:26:29;;;;;;;41.93;19.63;;;;;;;13.50;47.18;102895.06;5064292;28;20462;-68
2022/12/01 01:29:00;;;;;;;45.60;20.00;;;;;;;13.47;47.20;102898.53;5048792;28;20047;-68
2022/12/01 01:31:28;;;;;;;44.47;20.33;;;;;;;13.32;47.87;102907.09;5046872;28;20211;-68
2022/12/01 01:33:57;;;;;;;45.17;21.60;;;;;;;13.20;47.90;102906.94;5048407;28;20052;-68
2022/12/01 01:36:23;;;;;;;49.20;22.07;;;;;;;13.35;47.87;102907.19;5046727;28;20700;-68
2022/12/01 01:38:50;;;;;;;45.83;21.63;;;;;;;13.73;46.95;102906.69;5049266;28;20379;-68
2022/12/01 01:41:17;;;;;;;45.07;21.13;;;;;;;13.55;47.55;102903.91;5078558;28;20043;-69
2022/12/01 01:43:54;;;;;;;46.43;22.07;;;;;;;13.88;47.42;102891.94;5048412;28;20036;-69
2022/12/01 01:46:23;;;;;;;47.20;22.50;;;;;;;13.87;46.67;102900.69;5047087;28;20033;-68
2022/12/01 01:49:05;;;;;;;48.47;22.33;;;;;;;13.86;47.00;102896.28;5047675;28;20452;-68
2022/12/01 01:51:51;;;;;;;47.97;22.90;;;;;;;13.48;48.63;102907.31;5048371;28;20106;-68
2022/12/01 01:54:20;;;;;;;51.23;22.03;;;;;;;13.38;48.08;102915.09;5047352;28;20032;-68
2022/12/01 01:56:50;;;;;;;51.67;23.83;;;;;;;12.97;49.21;102919.78;5048381;28;20025;-68
2022/12/01 01:59:22;;;;;;;58.50;23.13;;;;;;;13.65;47.87;102913.63;5048112;28;20094;-68
2022/12/01 02:01:55;;;;;;;55.03;24.27;;;;;;;13.95;47.59;102906.91;5076961;28;20407;-68
2022/12/01 02:04:22;;;;;;;;;;;;;;;13.70;47.50;102909.28;5048729;28;20032;-68
2022/12/01 02:06:47;;;;;;;63.77;26.03;;;;;;;13.63;48.00;102909.22;5082457;28;19909;-68
2022/12/01 02:09:14;;;;;;;55.40;25.40;;;;;;;13.21;48.87;102919.22;5047120;28;20047;-68
2022/12/01 02:12:01;;;;;;;58.47;24.67;;;;;;;14.20;46.69;102902.72;5052074;28;20016;-68
2022/12/01 02:14:40;;;;;;;56.93;24.10;;;;;;;14.04;47.50;102904.34;5047322;28;20612;-68
2022/12/01 02:17:11;;;;;;;60.87;25.43;;;;;;;14.30;47.25;102906.31;5043108;28;20647;-69
2022/12/01 02:20:14;;;;;;;64.40;25.90;;;;;;;14.03;47.96;102901.72;5044883;28;20481;-69
2022/12/01 02:23:07;;;;;;;56.37;24.70;;;;;;;14.34;47.23;102896.69;5048858;28;20099;-69
2022/12/01 02:26:10;;;;;;;54.88;24.73;;;;;;;13.87;48.03;102895.44;5048625;28;20020;-69
2022/12/01 02:29:01;;;;;;;56.47;24.43;;;;;;;13.87;48.10;102895.44;4983377;28;20109;-69
2022/12/01 02:31:45;;;;;;;61.33;24.80;;;;;;;14.23;47.46;102893.97;5075226;28;20458;-68
2022/12/01 02:34:56;;;;;;;59.17;25.13;;;;;;;14.58;46.96;102885.44;5050277;28;20032;-69
2022/12/01 02:37:35;;;;;;;63.80;25.30;;;;;;;14.13;47.75;102886.91;5067817;28;20135;-69
2022/12/01 02:40:06;;;;;;;62.63;26.80;;;;;;;14.66;46.28;102888.13;5052647;28;20029;-68
2022/12/01 02:42:52;;;;;;;58.93;25.77;;;;;;;14.63;46.61;102888.13;5052205;28;20025;-68
2022/12/01 02:45:30;;;;;;;60.93;26.27;;;;;;;14.54;46.65;102891.56;5049931;28;20052;-68
2022/12/01 02:48:00;;;;;;;61.60;26.20;;;;;;;14.47;46.83;102881.88;5049306;28;20401;-68
2022/12/01 02:50:29;;;;;;;63.93;26.63;;;;;;;14.58;46.17;102882.81;5049178;28;20049;-69
2022/12/01 02:52:54;;;;;;;68.53;28.33;;;;;;;14.57;46.19;102883.69;5058756;28;20028;-68
2022/12/01 02:55:20;;;;;;;58.33;25.70;;;;;;;14.20;47.12;102886.94;5049573;28;20368;-69
2022/12/01 02:57:45;;;;;;;63.60;26.70;;;;;;;14.15;47.12;102890.41;5050243;28;20079;-68
2022/12/01 03:00:12;;;;;;;65.67;28.50;;;;;;;14.53;46.58;102889.78;5050761;28;20337;-68
2022/12/01 03:02:53;;;;;;;59.57;25.20;;;;;;;14.40;46.06;102884.44;5050774;28;20520;-68
2022/12/01 03:05:21;;;;;;;67.93;27.03;;;;;;;14.17;45.95;102883.41;5048415;28;20039;-68
2022/12/01 03:08:05;;;;;;;64.53;27.70;;;;;;;13.92;46.62;102888.47;5049769;28;20075;-68
2022/12/01 03:10:50;;;;;;;63.50;26.43;;;;;;;14.17;46.41;102883.41;5049260;28;20102;-68
2022/12/01 03:13:44;;;;;;;63.20;26.90;;;;;;;13.71;47.07;102879.53;5048913;28;20118;-68
2022/12/01 03:16:48;;;;;;;73.83;29.33;;;;;;;13.83;46.73;102888.38;5037454;28;20486;-68
2022/12/01 03:19:26;;;;;;;64.77;26.50;;;;;;;13.26;47.55;102898.25;5037721;28;20071;-68
2022/12/01 03:21:58;;;;;;;68.33;28.37;;;;;;;13.44;47.32;102885.38;5053428;28;20032;-69
2022/12/01 03:24:26;;;;;;;;;;;;;;;13.63;46.68;102893.44;5049189;28;20056;-68
2022/12/01 03:26:57;;;;;;;73.67;28.80;;;;;;;13.23;48.09;102891.25;5037534;28;19924;-69
2022/12/01 03:29:38;;;;;;;64.07;27.57;;;;;;;13.30;47.41;102882.56;5047747;28;20621;-67
2022/12/01 03:32:19;;;;;;;73.40;28.33;;;;;;;13.25;47.26;102881.63;5051796;28;20040;-68
2022/12/01 03:34:51;;;;;;;72.57;27.70;;;;;;;13.68;45.88;102878.59;5051046;28;20056;-69
2022/12/01 03:37:23;;;;;;;73.82;27.13;;;;;;;13.33;46.80;102876.47;5052421;28;20037;-68
2022/12/01 03:39:53;;;;;;;78.07;29.37;;;;;;;13.66;45.93;102881.22;5048486;28;20028;-68
2022/12/01 03:42:35;;;;;;;73.73;27.83;;;;;;;13.19;47.05;102894.72;5052765;28;20374;-69
2022/12/01 03:45:08;;;;;;;74.82;28.38;;;;;;;13.50;46.29;102884.56;5050844;28;20494;-69
2022/12/01 03:47:36;;;;;;;71.82;28.42;;;;;;;13.66;45.46;102875.97;5048541;28;20033;-68
2022/12/01 03:50:05;;;;;;;82.17;30.13;;;;;;;13.28;47.19;102886.91;5050351;28;20103;-68
2022/12/01 03:53:08;;;;;;;72.67;28.83;;;;;;;13.28;46.99;102884.28;5050335;28;20033;-68
2022/12/01 03:55:40;;;;;;;72.20;27.70;;;;;;;13.04;46.70;102884.91;5046811;28;20021;-68
2022/12/01 03:58:33;;;;;;;72.28;28.70;;;;;;;12.87;47.33;102892.53;5050529;28;20056;-68
2022/12/01 04:01:01;;;;;;;78.80;30.37;;;;;;;12.91;47.98;102883.84;5049375;28;20498;-69
2022/12/01 04:03:27;;;;;;;72.40;29.07;;;;;;;12.79;47.58;102888.94;5050489;28;20100;-69
2022/12/01 04:05:52;;;;;;;74.63;29.27;;;;;;;12.73;47.64;102885.38;5051564;28;20056;-68
2022/12/01 04:08:17;;;;;;;80.10;30.30;;;;;;;12.63;47.25;102886.09;5081895;28;20037;-68
2022/12/01 04:10:43;;;;;;;75.50;28.87;;;;;;;12.61;47.30;102884.31;5083591;28;20016;-68
2022/12/01 04:13:15;;;;;;;73.63;30.60;;;;;;;12.55;47.42;102891.22;5063941;28;20140;-69
2022/12/01 04:15:41;;;;;;;64.95;27.65;;;;;;;12.64;47.46;102897.47;5059283;28;20028;-69
2022/12/01 04:18:07;;;;;;;74.07;27.47;;;;;;;12.87;46.63;102887.28;5046481;28;20029;-68
2022/12/01 04:20:32;;;;;;;91.13;29.87;;;;;;;12.98;46.78;102890.97;5049563;28;20023;-69
2022/12/01 04:22:57;;;;;;;74.23;30.30;;;;;;;12.84;47.68;102908.25;5064960;28;20393;-69
2022/12/01 04:25:23;;;;;;;67.20;28.37;;;;;;;12.62;47.90;102897.44;5070521;28;20107;-69
2022/12/01 04:27:48;;;;;;;66.73;27.20;;;;;;;12.92;47.51;102901.38;5047748;28;20045;-69
2022/12/01 04:30:14;;;;;;;90.93;29.27;;;;;;;12.07;51.19;102891.38;5047445;28;20089;-69
2022/12/01 04:32:41;;;;;;;100.70;26.93;;;;;;;12.94;48.38;102891.78;5050392;28;20075;-68
2022/12/01 04:35:08;;;;;;;81.80;27.47;;;;;;;12.83;48.12;102893.34;5060972;28;20386;-69
2022/12/01 04:37:34;;;;;;;87.10;27.47;;;;;;;13.16;47.39;102894.66;5038733;28;20028;-69
2022/12/01 04:39:59;;;;;;;87.03;28.63;;;;;;;12.99;48.30;102892.69;5066768;28;20021;-68
2022/12/01 04:42:25;;;;;;;64.33;27.03;;;;;;;13.06;47.71;102899.81;5049602;28;20052;-69
2022/12/01 04:44:50;;;;;;;59.67;26.90;;;;;;;13.57;47.03;102891.63;5047003;28;20035;-67
2022/12/01 04:47:15;;;;;;;64.73;26.40;;;;;;;13.38;47.78;102886.19;5064302;28;20032;-69
2022/12/01 04:49:41;;;;;;;66.73;28.63;;;;;;;13.31;47.11;102905.34;5047760;28;20036;-69
2022/12/01 04:52:06;;;;;;;61.47;25.13;;;;;;;13.40;47.22;102887.09;5048598;28;20036;-69
2022/12/01 04:54:32;;;;;;;64.17;25.57;;;;;;;13.82;46.41;102886.63;5057642;28;20389;-69
2022/12/01 04:56:57;;;;;;;63.37;25.57;;;;;;;13.58;46.87;102893.41;5048066;28;20096;-69
2022/12/01 04:59:23;;;;;;;62.90;27.30;;;;;;;13.44;47.46;102889.78;5047539;28;20390;-68
2022/12/01 05:01:48;;;;;;;79.63;35.80;;;;;;;13.27;47.77;102907.91;5048053;28;20033;-69
2022/12/01 05:04:14;;;;;;;81.80;31.53;;;;;;;13.57;47.19;102903.03;5048100;28;20506;-69
2022/12/01 05:06:40;;;;;;;70.13;30.03;;;;;;;13.58;47.83;102891.66;5048234;28;20036;-69
2022/12/01 05:09:05;;;;;;;76.13;32.77;;;;;;;13.45;47.42;102904.66;5082607;28;20029;-68
2022/12/01 05:11:32;;;;;;;84.73;35.77;;;;;;;14.10;46.46;102893.00;5047614;28;20709;-69
2022/12/01 05:13:58;;;;;;;76.77;30.97;;;;;;;13.88;46.95;102891.94;5047021;28;20398;-68
2022/12/01 05:16:26;;;;;;;73.60;31.20;;;;;;;13.68;47.61;102895.28;5043230;28;20037;-68
2022/12/01 05:21:40;;;;;;;70.77;29.07;;;;;;;13.43;47.63;102888.00;5049819;28;20043;-69
2022/12/01 05:24:07;;;;;;;68.40;28.67;;;;;;;13.47;47.15;102897.69;5049572;28;20029;-69
2022/12/01 05:26:33;;;;;;;65.00;28.40;;;;;;;13.25;47.50;102902.66;5047901;28;20025;-69
2022/12/01 05:28:58;;;;;;;64.20;26.07;;;;;;;13.47;46.70;102902.94;5047991;28;20033;-69
2022/12/01 05:31:23;;;;;;;71.67;29.10;;;;;;;12.95;47.93;102908.41;5048450;28;20028;-68
2022/12/01 05:33:49;;;;;;;76.17;30.60;;;;;;;12.95;48.29;102911.91;5050065;28;20029;-69
2022/12/01 05:36:14;;;;;;;64.00;26.00;;;;;;;13.07;47.90;102912.06;5064685;28;20036;-69
2022/12/01 05:38:39;;;;;;;66.80;27.37;;;;;;;13.17;47.82;102917.44;5040159;28;20115;-69
2022/12/01 05:41:05;;;;;;;75.80;28.50;;;;;;;13.13;47.85;102916.50;5048533;28;20028;-69
2022/12/01 05:43:30;;;;;;;68.63;27.83;;;;;;;13.35;46.99;102901.94;5049197;28;20028;-69
2022/12/01 05:45:56;;;;;;;62.70;27.67;;;;;;;13.29;47.40;102901.81;5046563;28;20021;-68
2022/12/01 05:48:22;;;;;;;73.40;27.13;;;;;;;13.42;46.48;102896.75;5048416;28;20025;-68
2022/12/01 05:50:47;;;;;;;66.60;26.50;;;;;;;13.35;46.94;102899.31;5050959;28;20025;-69
2022/12/01 05:53:13;;;;;;;71.60;28.93;;;;;;;13.66;45.31;102894.38;5048258;28;20025;-69
2022/12/01 05:55:39;;;;;;;68.47;28.93;;;;;;;13.27;46.03;102903.56;5048695;28;20124;-69
2022/12/01 05:58:05;;;;;;;66.13;26.93;;;;;;;13.12;46.77;102906.88;5047645;28;20025;-69
2022/12/01 06:00:30;;;;;;;64.70;26.53;;;;;;;12.64;47.62;102911.50;5081291;28;20024;-68
2022/12/01 06:02:55;;;;;;;69.30;26.20;;;;;;;12.71;47.36;102918.59;5048505;28;20068;-69
2022/12/01 06:05:21;;;;;;;66.57;26.83;;;;;;;12.57;47.47;102920.13;5049444;28;20043;-69
2022/12/01 06:07:46;;;;;;;62.73;26.20;;;;;;;12.51;47.41;102920.03;5051728;28;20046;-69
2022/12/01 06:10:12;;;;;;;68.90;26.20;;;;;;;12.71;47.38;102920.34;5053263;28;20021;-69
2022/12/01 06:12:38;;;;;;;64.33;26.10;;;;;;;12.67;46.83;102926.41;5036416;28;20021;-68
2022/12/01 06:15:05;;;;;;;70.87;27.03;;;;;;;12.51;47.32;102923.53;5032074;28;20471;-68
2022/12/01 06:17:31;;;;;;;67.93;26.40;;;;;;;12.68;46.96;102930.75;5048965;28;20025;-68
2022/12/01 06:19:56;;;;;;;67.47;25.97;;;;;;;12.42;47.40;102930.38;5049822;28;20021;-69
2022/12/01 06:22:22;;;;;;;70.30;27.37;;;;;;;12.55;47.37;102927.09;5047325;28;20060;-68
2022/12/01 06:24:47;;;;;;;69.90;26.20;;;;;;;12.43;47.66;102926.91;5044672;28;20501;-68
2022/12/01 06:27:13;;;;;;;81.90;29.00;;;;;;;12.52;47.51;102932.28;5053311;28;20445;-68
2022/12/01 06:29:38;;;;;;;75.83;28.60;;;;;;;12.70;47.07;102924.69;5049208;28;20039;-69
2022/12/01 06:32:04;;;;;;;75.60;27.13;;;;;;;12.75;46.98;102926.47;5050267;28;20441;-69
2022/12/01 06:34:29;;;;;;;75.43;29.30;;;;;;;12.49;47.40;102921.75;5053534;28;20020;-68
2022/12/01 06:36:54;;;;;;;78.80;28.53;;;;;;;12.68;46.57;102923.78;5051255;28;20025;-69
2022/12/01 06:39:20;;;;;;;71.93;27.33;;;;;;;12.70;46.70;102926.44;5050385;28;20036;-69
2022/12/01 06:41:45;;;;;;;81.70;29.23;;;;;;;12.76;46.63;102936.13;5048344;28;20050;-69
2022/12/01 06:44:11;;;;;;;82.47;29.50;;;;;;;13.01;46.10;102933.00;5051771;28;20043;-69
2022/12/01 06:46:36;;;;;;;78.83;31.10;;;;;;;12.72;46.67;102935.19;5050688;28;20013;-69
2022/12/01 06:49:02;;;;;;;83.20;31.80;;;;;;;12.36;48.14;102934.69;5066605;28;20020;-69
2022/12/01 06:51:27;;;;;;;92.33;31.00;;;;;;;12.84;46.59;102938.00;5050557;28;20482;-69
2022/12/01 06:53:54;;;;;;;78.67;28.67;;;;;;;12.80;46.80;102940.56;5051890;28;20025;-69
2022/12/01 06:56:20;;;;;;;80.30;28.40;;;;;;;12.58;47.04;102942.88;5052234;28;20490;-68
2022/12/01 06:58:45;;;;;;;92.07;31.33;;;;;;;12.57;47.02;102941.13;5048970;28;20576;-69
2022/12/01 07:01:11;;;;;;;85.87;31.33;;;;;;;12.56;47.27;102941.97;5049170;28;20048;-69
2022/12/01 07:03:38;;;;;;;85.83;31.60;;;;;;;12.37;48.29;102941.66;5049194;28;20048;-69
2022/12/01 07:06:03;;;;;;;90.40;30.37;;;;;;;12.47;47.22;102939.19;5051470;28;20439;-69
2022/12/01 07:08:30;;;;;;;75.03;29.00;;;;;;;12.63;46.94;102945.56;5049298;28;20163;-69
2022/12/01 07:10:57;;;;;;;83.67;30.07;;;;;;;12.75;45.87;102944.84;5049144;28;20037;-68
2022/12/01 07:13:23;;;;;;;76.87;27.67;;;;;;;12.57;47.14;102946.38;5064109;28;20450;-68
2022/12/01 07:15:48;;;;;;;82.40;29.50;;;;;;;12.29;47.76;102940.66;5051043;28;20052;-69
2022/12/01 07:18:14;;;;;;;78.20;28.93;;;;;;;12.30;48.15;102944.19;5083619;28;20021;-69
2022/12/01 07:20:39;;;;;;;77.30;29.50;;;;;;;12.31;47.94;102954.69;5053781;28;20029;-69
2022/12/01 07:23:04;;;;;;;72.03;28.30;;;;;;;12.68;47.13;102950.03;5052295;28;20025;-69
2022/12/01 07:25:30;;;;;;;74.70;28.40;;;;;;;12.63;47.19;102958.69;5050379;28;20032;-69
2022/12/01 07:27:55;;;;;;;69.23;27.80;;;;;;;12.75;46.66;102960.59;5033694;28;20037;-68
2022/12/01 07:30:20;;;;;;;87.03;29.10;;;;;;;12.72;47.00;102959.72;5051424;28;20638;-68
2022/12/01 07:32:46;;;;;;;88.80;30.47;;;;;;;12.63;47.45;102959.56;5083969;28;20028;-69
2022/12/01 07:35:11;;;;;;;95.83;31.87;;;;;;;12.59;48.13;102963.00;5051838;28;20024;-69
2022/12/01 07:37:37;;;;;;;81.17;29.67;;;;;;;12.71;47.70;102965.81;5048268;28;20029;-69
2022/12/01 07:40:02;;;;;;;82.57;30.20;;;;;;;12.59;48.13;102970.88;5045171;28;20479;-69
2022/12/01 07:42:28;;;;;;;83.77;30.97;;;;;;;12.66;48.07;102972.72;5049286;28;20033;-69
2022/12/01 07:44:53;;;;;;;79.20;28.67;;;;;;;12.85;47.66;102978.25;5050239;28;20020;-68
2022/12/01 07:47:18;;;;;;;101.17;35.90;;;;;;;12.71;48.39;102976.31;5050352;28;20021;-68
2022/12/01 07:49:44;;;;;;;94.27;35.03;;;;;;;12.86;48.12;102969.53;5050427;28;20051;-68
2022/12/01 07:52:09;;;;;;;99.30;33.90;;;;;;;13.26;46.92;102975.31;5046296;28;20474;-68
2022/12/01 07:54:34;;;;;;;103.43;34.43;;;;;;;13.39;46.79;102977.28;5046786;28;20568;-69
2022/12/01 07:57:00;;;;;;;101.47;32.33;;;;;;;13.46;46.77;102983.47;5049303;28;20538;-69
2022/12/01 07:59:25;;;;;;;99.03;32.97;;;;;;;13.31;46.82;102989.41;5048204;28;20496;-68
2022/12/01 08:01:50;;;;;;;94.07;31.73;;;;;;;13.31;47.16;102989.41;5041044;28;20607;-69
2022/12/01 08:04:16;;;;;;;95.63;31.83;;;;;;;13.21;47.72;102991.00;5036893;28;20451;-68
2022/12/01 08:06:41;;;;;;;88.27;30.93;;;;;;;13.32;47.11;102999.03;5043198;28;20463;-69
2022/12/01 08:09:07;;;;;;;79.23;28.83;;;;;;;13.44;47.04;103005.34;5039432;28;20036;-69
2022/12/01 08:11:32;;;;;;;101.70;33.13;;;;;;;13.28;47.81;102999.84;5043454;28;20578;-69
2022/12/01 08:13:57;;;;;;;107.70;33.00;;;;;;;13.42;47.62;103001.81;5048004;28;20033;-69
2022/12/01 08:16:23;;;;;;;93.07;31.63;;;;;;;13.54;47.28;103008.09;5045879;28;20048;-68
2022/12/01 08:18:49;;;;;;;103.23;31.90;;;;;;;13.38;47.98;102998.25;5047461;28;20475;-69
2022/12/01 08:21:18;;;;;;;102.53;32.43;;;;;;;13.69;46.99;103001.25;5047448;28;20082;-68
2022/12/01 08:23:44;;;;;;;101.13;32.00;;;;;;;13.58;47.39;102993.25;5079121;28;23214;-69
2022/12/01 08:26:15;;;;;;;105.53;34.57;;;;;;;13.66;47.47;102995.97;5046723;28;20111;-69
2022/12/01 08:28:40;;;;;;;110.10;35.70;;;;;;;13.58;47.23;103004.63;5046267;28;20072;-69
2022/12/01 08:31:16;;;;;;;110.00;34.73;;;;;;;13.28;48.77;103009.47;5048387;28;20506;-69
2022/12/01 08:33:42;;;;;;;98.77;34.87;;;;;;;13.42;48.13;103001.81;5044347;28;20032;-68
2022/12/01 08:36:07;;;;;;;99.10;33.93;;;;;;;13.69;47.68;103004.75;5044231;28;20021;-69
2022/12/01 08:38:33;;;;;;;106.97;35.13;;;;;;;13.67;47.45;103017.03;5040207;28;20512;-68
2022/12/01 08:41:04;;;;;;;102.77;34.63;;;;;;;13.73;47.75;103010.94;5042978;28;20037;-69
2022/12/01 08:43:30;;;;;;;97.23;34.00;;;;;;;13.66;48.16;103009.13;5077298;28;20040;-69
2022/12/01 08:45:59;;;;;;;104.70;34.40;;;;;;;13.26;49.03;103019.97;5045049;28;20029;-69
2022/12/01 08:48:28;;;;;;;102.97;33.57;;;;;;;13.68;48.02;103010.91;5047409;28;20494;-69
2022/12/01 08:51:10;;;;;;;109.47;33.50;;;;;;;13.69;48.24;103012.66;5046925;28;20024;-70
2022/12/01 08:53:38;;;;;;;103.53;33.97;;;;;;;13.38;49.23;103012.28;5043655;28;20029;-69
2022/12/01 08:56:16;;;;;;;101.13;34.13;;;;;;;13.74;48.38;103015.34;5034522;28;20033;-69
2022/12/01 08:58:41;;;;;;;111.23;36.07;;;;;;;13.80;48.45;103014.53;5045833;28;20565;-69
2022/12/01 09:01:17;;;;;;;106.83;35.23;;;;;;;13.80;49.27;103014.53;5169223;27;20130;-69
2022/12/01 09:03:43;;;;;;;107.93;35.90;;;;;;;13.98;48.80;103004.19;5141340;27;20629;-69
2022/12/01 09:06:19;;;;;;;105.23;34.03;;;;;;;13.16;51.04;103005.84;5125203;27;20031;-69
2022/12/01 09:08:45;;;;;;;108.37;37.13;;;;;;;14.20;48.70;102999.16;5124472;27;20035;-69
2022/12/01 09:11:13;;;;;;;107.50;34.87;;;;;;;14.69;47.33;102994.34;5121760;27;20399;-69
2022/12/01 09:13:40;;;;;;;98.87;34.80;;;;;;;14.56;47.01;102993.34;5128338;27;20546;-69
2022/12/01 09:16:09;;;;;;;102.43;33.13;;;;;;;14.67;46.86;102990.81;5143791;27;20465;-69
2022/12/01 09:18:34;;;;;;;104.83;35.23;;;;;;;14.36;47.70;102995.78;5129686;27;20041;-69
2022/12/01 09:21:09;;;;;;;100.80;35.17;;;;;;;14.67;47.08;103001.34;5144360;27;20452;-69
2022/12/01 09:23:34;;;;;;;102.07;35.20;;;;;;;14.14;48.24;103000.00;5127039;27;20022;-69
2022/12/01 09:25:59;;;;;;;96.90;35.43;;;;;;;14.73;46.76;103004.00;5126822;27;20031;-69
2022/12/01 09:28:25;;;;;;;104.57;34.77;;;;;;;14.94;46.67;102999.75;5128276;27;20087;-69
2022/12/01 09:30:50;;;;;;;106.40;33.63;;;;;;;14.27;47.97;103006.22;5127391;27;20034;-69
2022/12/01 09:33:16;;;;;;;92.10;33.97;;;;;;;14.84;47.27;103008.47;5127057;27;20566;-68
2022/12/01 09:35:41;;;;;;;107.07;34.97;;;;;;;15.17;47.04;103001.66;5126239;27;20030;-69
2022/12/01 09:38:06;;;;;;;111.57;36.77;;;;;;;15.14;47.47;103006.88;5123747;27;20109;-69
2022/12/01 09:40:39;;;;;;;104.40;35.97;;;;;;;14.92;48.01;103005.03;5141517;27;20114;-69
2022/12/01 09:43:17;;;;;;;104.90;35.97;;;;;;;15.45;46.74;103002.66;5129955;27;20508;-69
2022/12/01 09:45:47;;;;;;;106.43;36.20;;;;;;;15.76;46.94;103001.00;5127746;27;20029;-69
2022/12/01 09:48:24;;;;;;;106.97;36.13;;;;;;;15.62;46.70;103000.09;5126796;27;20427;-69
2022/12/01 09:50:49;;;;;;;96.87;34.43;;;;;;;16.24;46.59;102994.97;5125557;27;20030;-69
2022/12/01 09:53:21;;;;;;;96.20;35.53;;;;;;;15.73;47.06;103000.09;5129140;27;20034;-69
2022/12/01 09:55:47;;;;;;;102.90;36.83;;;;;;;15.45;47.54;102997.38;5130329;27;20022;-69
2022/12/01 09:58:18;;;;;;;98.93;35.30;;;;;;;15.99;46.30;102988.78;5130648;27;20182;-68
2022/12/01 10:00:45;;;;;;;91.90;34.37;;;;;;;15.30;48.61;102982.38;5128673;27;20065;-69
2022/12/01 10:03:33;;;;;;;99.00;36.13;;;;;;;16.20;46.30;102977.38;5148208;27;20026;-69
2022/12/01 10:06:07;;;;;;;86.77;32.50;;;;;;;16.22;46.03;102978.25;5127299;27;20482;-69
2022/12/01 10:08:42;;;;;;;82.53;32.33;;;;;;;16.23;46.16;102972.09;5126792;27;20118;-68
2022/12/01 10:11:33;;;;;;;90.77;34.73;;;;;;;15.39;47.66;102977.16;5086618;28;20084;-69
2022/12/01 10:14:00;;;;;;;80.77;33.10;;;;;;;15.20;48.02;102977.97;5095445;28;20023;-69
2022/12/01 10:16:32;;;;;;;79.37;32.57;;;;;;;14.81;48.08;102985.66;5114378;27;20038;-69
2022/12/01 10:19:07;;;;;;;91.32;34.05;;;;;;;16.09;46.21;102975.59;5113982;27;20382;-68
2022/12/01 10:21:36;;;;;;;89.57;34.53;;;;;;;15.67;48.22;102979.00;5113982;27;20038;-69
2022/12/01 10:24:22;;;;;;;86.57;31.57;;;;;;;16.86;45.51;102979.09;5116279;27;20039;-69
2022/12/01 10:26:54;;;;;;;89.00;32.90;;;;;;;16.41;45.63;102974.72;5115333;27;20118;-69
2022/12/01 10:29:29;;;;;;;76.65;29.63;;;;;;;17.15;43.30;102978.16;5115561;27;20105;-68
2022/12/01 10:31:57;;;;;;;71.80;28.97;;;;;;;17.75;43.05;102964.59;5116139;27;20427;-69
2022/12/01 10:34:35;;;;;;;69.83;29.30;;;;;;;17.46;44.30;102974.47;5132452;27;20019;-69
2022/12/01 10:37:01;;;;;;;64.63;27.50;;;;;;;17.46;42.98;102977.13;5114484;27;20393;-68
2022/12/01 10:39:35;;;;;;;67.30;26.43;;;;;;;17.21;43.27;102975.47;5115788;27;20024;-68
2022/12/01 10:42:12;;;;;;;64.77;27.57;;;;;;;17.30;43.92;102975.44;5115413;27;20031;-68
2022/12/01 10:44:39;;;;;;;61.83;26.67;;;;;;;17.06;43.18;102972.00;5115840;27;20156;-68
2022/12/01 10:47:27;;;;;;;69.63;28.27;;;;;;;16.04;45.69;102966.78;5114971;27;20498;-68
2022/12/01 10:49:53;;;;;;;64.03;28.43;;;;;;;16.17;44.19;102969.44;5102921;27;20053;-68
2022/12/01 10:52:40;;;;;;;64.80;27.53;;;;;;;16.64;43.90;102968.56;5115771;27;20054;-68
2022/12/01 10:55:25;;;;;;;71.47;29.53;;;;;;;15.88;45.70;102970.28;5116072;27;20030;-68
2022/12/01 10:57:53;;;;;;;68.30;28.93;;;;;;;15.64;46.18;102971.97;5115657;27;20027;-68
2022/12/01 11:00:27;;;;;;;72.27;29.50;;;;;;;16.42;44.91;102968.56;5114494;27;20066;-68
2022/12/01 11:02:53;;;;;;;74.63;30.43;;;;;;;15.23;47.11;102977.97;5132251;27;20030;-68
2022/12/01 11:05:48;;;;;;;68.00;28.87;;;;;;;15.84;46.07;102971.16;5115661;27;20163;-68
2022/12/01 11:08:35;;;;;;;76.60;31.33;;;;;;;15.80;46.02;102972.03;5096994;27;20125;-68
2022/12/01 11:11:00;;;;;;;86.33;31.83;;;;;;;15.53;46.64;102973.69;5114641;27;20035;-68
2022/12/01 11:13:29;;;;;;;79.27;30.40;;;;;;;15.80;46.63;102961.47;5115444;27;20137;-68
2022/12/01 11:16:00;;;;;;;70.97;28.43;;;;;;;15.06;48.08;102962.97;5115227;27;20019;-68
2022/12/01 11:18:35;;;;;;;76.80;30.27;;;;;;;15.60;47.02;102957.00;5111347;27;20112;-69
2022/12/01 11:21:06;;;;;;;77.33;30.60;;;;;;;15.53;47.00;102957.88;5112122;27;20031;-68
2022/12/01 11:23:35;;;;;;;74.87;29.57;;;;;;;15.61;46.54;102950.88;5103197;27;20042;-68